Shenandoah, Georgia
Current Conditions -  °F | °C
As of 11:35 AM on Monday 24 Nov 2014 (Local Time) from KCCO Reporting Station
Scattered Clouds Scattered Clouds  
Wind Chill: 72°   Ceiling: Unl
Heat Index: 72°   Visibility: 10mi
Dew Point: 62°   Wind: 8mph
Humidity: 71%   Direction: 240°WSW
Pressure: 29.83"   Gusts: 17mph
Location:  33.4176°N, 84.7076°W
Report Text: KCCO 241635Z AUTO 24007G15KT 10SM SCT025 SCT033 22/17 A2983 RMK AO2 T02210166
Loading
Personal Weather Stations






























Interactive Weather Map New forecast layout! Learn more

10-Day Weather Forecast

Advertisements
Track Severe Weather on mobile